createdAt,value
2023-09-21T00:02:22.230Z,71.68
2023-09-21T00:05:07.631Z,70.78
2023-09-21T00:07:53.602Z,71.94
2023-09-21T00:10:38.830Z,73.56
2023-09-21T00:13:28.571Z,72.29
2023-09-21T00:16:16.271Z,73.52
2023-09-21T00:19:08.024Z,72.77
2023-09-21T00:21:55.219Z,73.58
2023-09-21T00:24:40.504Z,73.86
2023-09-21T00:27:29.728Z,73.09
2023-09-21T00:30:16.228Z,72.85
2023-09-21T00:33:01.667Z,72.57
2023-09-21T00:35:47.174Z,73.95
2023-09-21T00:38:32.705Z,74.44
2023-09-21T00:41:19.598Z,72.99
2023-09-21T00:44:08.995Z,72.52
2023-09-21T00:46:54.467Z,71.56
2023-09-21T00:49:39.691Z,72.26
2023-09-21T00:52:25.929Z,71.67
2023-09-21T00:55:14.323Z,72.93
2023-09-21T00:58:03.809Z,72.38
2023-09-21T01:00:50.373Z,70.24
2023-09-21T01:03:38.676Z,70.42
2023-09-21T01:06:24.755Z,71.55
2023-09-21T01:09:14.369Z,70.91
2023-09-21T01:12:00.949Z,72.14
2023-09-21T01:14:46.431Z,72.56
2023-09-21T01:17:32.256Z,71.93
2023-09-21T01:20:23.209Z,73.02
2023-09-21T01:23:19.798Z,72.83
2023-09-21T01:26:06.034Z,73.40
2023-09-21T01:28:51.472Z,73.64
2023-09-21T01:31:37.554Z,73.89
2023-09-21T01:34:22.956Z,74.63
2023-09-21T01:37:08.437Z,74.31
2023-09-21T01:39:53.673Z,74.05
2023-09-21T01:42:38.569Z,73.65
2023-09-21T01:45:23.623Z,74.10
2023-09-21T01:48:12.080Z,74.84
2023-09-21T01:51:00.522Z,74.26
2023-09-21T01:53:46.812Z,74.10
2023-09-21T01:56:32.376Z,74.63
2023-09-21T01:59:17.346Z,73.76
2023-09-21T02:02:02.777Z,74.03
2023-09-21T02:04:51.278Z,73.73
2023-09-21T02:07:36.907Z,74.53
2023-09-21T02:10:23.165Z,73.51
2023-09-21T02:13:08.944Z,73.65
2023-09-21T02:15:54.150Z,73.58
2023-09-21T02:18:39.273Z,75.39
2023-09-21T02:21:25.198Z,75.64
2023-09-21T02:24:10.597Z,75.79
2023-09-21T02:26:55.578Z,74.63
2023-09-21T02:29:41.944Z,75.40
2023-09-21T02:32:27.230Z,74.49
2023-09-21T02:35:16.983Z,75.01
2023-09-21T02:38:06.407Z,74.15
2023-09-21T02:40:51.791Z,74.12
2023-09-21T02:43:36.697Z,74.70
2023-09-21T02:46:23.120Z,74.58
2023-09-21T02:49:08.216Z,73.38
2023-09-21T02:51:53.988Z,72.29
2023-09-21T02:54:39.493Z,71.75
2023-09-21T02:57:25.060Z,73.24
2023-09-21T03:00:20.877Z,73.98
2023-09-21T03:03:07.896Z,74.90
2023-09-21T03:05:54.120Z,75.61
2023-09-21T03:08:39.859Z,75.68
2023-09-21T03:11:26.463Z,76.17
2023-09-21T03:14:11.371Z,76.73
2023-09-21T03:16:56.776Z,77.00
2023-09-21T03:19:41.897Z,77.14
2023-09-21T03:22:28.295Z,77.33
2023-09-21T03:25:17.530Z,77.73
2023-09-21T03:28:17.157Z,77.35
2023-09-21T03:31:02.386Z,75.33
2023-09-21T03:33:48.738Z,74.94
2023-09-21T03:36:39.106Z,75.15
2023-09-21T03:39:28.240Z,75.26
2023-09-21T03:42:13.592Z,75.24
2023-09-21T03:44:58.419Z,76.11
2023-09-21T03:47:44.323Z,76.51
2023-09-21T03:50:29.363Z,76.70
2023-09-21T03:53:14.382Z,77.12
2023-09-21T03:56:01.428Z,77.78
2023-09-21T03:58:46.596Z,77.35
2023-09-21T04:01:31.581Z,76.99
2023-09-21T04:04:19.416Z,76.17
2023-09-21T04:07:05.077Z,76.49
2023-09-21T04:09:50.506Z,76.13
2023-09-21T04:12:36.225Z,74.83
2023-09-21T04:15:30.155Z,76.26
2023-09-21T04:18:15.744Z,75.36
2023-09-21T04:23:50.005Z,75.10
2023-09-21T04:26:35.121Z,75.51
2023-09-21T04:29:20.095Z,75.38
2023-09-21T04:32:05.431Z,76.62
2023-09-21T04:34:50.883Z,76.06
2023-09-21T04:37:36.429Z,76.82
2023-09-21T04:40:23.082Z,76.47
2023-09-21T04:43:08.921Z,77.63
2023-09-21T04:45:53.861Z,75.72
2023-09-21T04:48:41.375Z,75.72
2023-09-21T04:51:26.612Z,76.09
2023-09-21T04:54:11.971Z,75.77
2023-09-21T04:56:57.259Z,75.65
2023-09-21T04:59:42.617Z,76.36
2023-09-21T05:02:27.960Z,76.12
2023-09-21T05:05:15.119Z,76.03
2023-09-21T05:07:59.883Z,74.78
2023-09-21T05:10:45.236Z,75.56
2023-09-21T05:13:30.986Z,74.15
2023-09-21T05:16:19.291Z,74.42
2023-09-21T05:19:06.619Z,75.43
2023-09-21T05:21:52.081Z,71.99
2023-09-21T05:24:38.077Z,73.95
2023-09-21T05:27:23.202Z,73.40
2023-09-21T05:30:10.864Z,74.61
2023-09-21T05:33:02.213Z,74.56
2023-09-21T05:35:52.500Z,75.01
2023-09-21T05:38:38.322Z,73.80
2023-09-21T05:41:23.828Z,75.33
2023-09-21T05:44:08.927Z,75.44
2023-09-21T05:46:54.002Z,75.62
2023-09-21T05:49:39.224Z,76.44
2023-09-21T05:52:25.295Z,76.32
2023-09-21T05:55:13.865Z,74.78
2023-09-21T05:57:59.252Z,75.48
2023-09-21T06:00:44.243Z,76.20
2023-09-21T06:03:30.169Z,76.49
2023-09-21T06:06:15.925Z,75.74
2023-09-21T06:09:02.860Z,75.41
2023-09-21T06:11:47.923Z,75.45
2023-09-21T06:14:33.082Z,74.53
2023-09-21T06:17:18.054Z,74.66
2023-09-21T06:20:04.482Z,75.28
2023-09-21T06:22:49.329Z,74.12
2023-09-21T06:25:36.320Z,74.86
2023-09-21T06:28:22.378Z,73.86
2023-09-21T06:31:08.272Z,75.28
2023-09-21T06:33:58.649Z,74.62
2023-09-21T06:36:43.747Z,74.77
2023-09-21T06:39:29.367Z,75.59
2023-09-21T06:42:16.536Z,75.59
2023-09-21T06:45:02.097Z,73.53
2023-09-21T06:47:48.900Z,74.00
2023-09-21T06:50:34.272Z,74.77
2023-09-21T06:53:19.246Z,73.57
2023-09-21T06:56:05.102Z,72.84
2023-09-21T06:58:50.534Z,72.61
2023-09-21T07:01:35.645Z,72.18
2023-09-21T07:04:22.259Z,72.30
2023-09-21T07:07:08.959Z,71.07
2023-09-21T07:09:55.790Z,70.83
2023-09-21T07:12:41.122Z,71.14
2023-09-21T07:15:25.955Z,70.34
2023-09-21T07:18:10.953Z,70.13
2023-09-21T07:20:56.598Z,69.70
2023-09-21T07:23:42.037Z,68.42
2023-09-21T07:26:27.324Z,68.41
2023-09-21T07:29:16.359Z,67.76
2023-09-21T07:32:01.630Z,66.69
2023-09-21T07:34:50.168Z,66.93
2023-09-21T07:37:35.243Z,65.49
2023-09-21T07:40:22.350Z,65.47
2023-09-21T07:43:08.150Z,64.81
2023-09-21T07:45:54.854Z,63.53
2023-09-21T07:48:40.951Z,63.51
2023-09-21T07:51:27.591Z,63.14
2023-09-21T07:54:13.101Z,62.85
2023-09-21T07:56:58.473Z,61.88
2023-09-21T07:59:44.416Z,61.67
2023-09-21T08:02:29.574Z,59.96
2023-09-21T08:05:15.501Z,61.68
2023-09-21T08:08:01.490Z,59.88
2023-09-21T08:10:46.569Z,58.62
2023-09-21T08:13:32.309Z,57.41
2023-09-21T08:16:17.784Z,57.75
2023-09-21T08:19:03.055Z,56.76
2023-09-21T08:21:48.113Z,56.15
2023-09-21T08:24:33.679Z,56.72
2023-09-21T08:27:19.239Z,55.62
2023-09-21T08:30:06.181Z,55.77
2023-09-21T08:32:51.483Z,55.29
2023-09-21T08:35:37.016Z,54.83
2023-09-21T08:38:22.018Z,53.23
2023-09-21T08:41:07.431Z,54.17
2023-09-21T08:43:55.572Z,52.33
2023-09-21T08:46:41.588Z,53.89
2023-09-21T08:49:29.472Z,54.84
2023-09-21T08:52:15.080Z,55.38
2023-09-21T08:55:00.364Z,55.07
2023-09-21T08:57:46.342Z,53.64
2023-09-21T09:00:32.196Z,54.06
2023-09-21T09:03:20.599Z,49.62
2023-09-21T09:06:05.725Z,52.67
2023-09-21T09:08:50.934Z,46.46
2023-09-21T09:11:41.121Z,44.50
2023-09-21T09:14:26.327Z,44.58
2023-09-21T09:17:15.362Z,43.64
2023-09-21T09:20:03.591Z,44.42
2023-09-21T09:22:50.516Z,45.38
2023-09-21T09:25:38.432Z,46.62
2023-09-21T09:28:23.653Z,46.21
2023-09-21T09:31:12.126Z,46.59
2023-09-21T09:33:58.553Z,46.40
2023-09-21T09:36:46.881Z,46.95
2023-09-21T09:39:31.968Z,46.58
2023-09-21T09:42:18.653Z,46.07
2023-09-21T09:45:05.402Z,46.46
2023-09-21T09:47:59.180Z,47.38
2023-09-21T09:50:50.232Z,47.79
2023-09-21T09:53:36.175Z,48.20
2023-09-21T09:56:23.722Z,49.06
2023-09-21T09:59:12.996Z,50.64
2023-09-21T10:02:00.089Z,50.63
2023-09-21T10:04:47.817Z,51.81
2023-09-21T10:07:33.003Z,51.66
2023-09-21T10:10:21.926Z,53.31
2023-09-21T10:13:07.260Z,53.18
2023-09-21T10:16:06.540Z,53.62
2023-09-21T10:18:59.955Z,54.73
2023-09-21T10:21:47.110Z,54.09
2023-09-21T10:24:33.195Z,54.95
2023-09-21T10:27:21.826Z,55.17
2023-09-21T10:30:16.756Z,56.40
2023-09-21T10:33:03.327Z,55.76
2023-09-21T10:35:50.662Z,56.32
2023-09-21T10:38:36.365Z,56.51
2023-09-21T10:41:34.141Z,57.71
2023-09-21T10:45:05.382Z,58.06
2023-09-21T10:47:53.946Z,58.64
2023-09-21T10:50:40.121Z,59.52
2023-09-21T10:53:25.919Z,59.51
2023-09-21T10:56:10.951Z,58.44
2023-09-21T10:58:56.529Z,58.35
2023-09-21T11:01:42.844Z,57.71
2023-09-21T11:04:28.271Z,57.54
2023-09-21T11:07:14.153Z,55.54
2023-09-21T11:09:59.750Z,55.38
2023-09-21T11:12:45.965Z,53.01
2023-09-21T11:15:33.456Z,52.38
2023-09-21T11:18:18.996Z,52.73
2023-09-21T11:21:05.085Z,53.15
2023-09-21T11:23:51.214Z,53.62
2023-09-21T11:26:36.979Z,52.83
2023-09-21T11:29:22.181Z,54.71
2023-09-21T11:32:08.636Z,51.71
2023-09-21T11:34:59.812Z,49.82
2023-09-21T11:37:47.459Z,50.86
2023-09-21T11:40:33.361Z,50.72
2023-09-21T11:43:18.655Z,50.10
2023-09-21T11:46:04.931Z,49.91
2023-09-21T11:48:51.327Z,50.29
2023-09-21T11:51:36.720Z,50.29
2023-09-21T11:54:22.006Z,50.94
2023-09-21T11:57:07.986Z,49.86
2023-09-21T11:59:57.800Z,50.22
2023-09-21T12:02:44.814Z,49.46
2023-09-21T12:05:33.402Z,49.48
2023-09-21T12:08:20.918Z,48.54
2023-09-21T12:11:09.184Z,48.75
2023-09-21T12:13:54.715Z,49.50
2023-09-21T12:16:41.196Z,50.36
2023-09-21T12:19:26.993Z,50.77
2023-09-21T12:22:13.139Z,53.59
2023-09-21T12:24:58.275Z,54.69
2023-09-21T12:27:48.048Z,54.56
2023-09-21T12:30:33.855Z,57.06
2023-09-21T12:33:39.019Z,62.65
2023-09-21T12:36:34.608Z,62.07
2023-09-21T12:39:28.936Z,63.12
2023-09-21T12:42:15.753Z,61.60
2023-09-21T12:45:01.240Z,64.67
2023-09-21T12:47:47.546Z,66.06
2023-09-21T12:50:33.078Z,67.05
2023-09-21T12:53:18.661Z,69.53
2023-09-21T12:56:05.959Z,69.93
2023-09-21T12:58:51.801Z,71.47
2023-09-21T13:01:38.165Z,75.29
2023-09-21T13:04:24.605Z,72.63
2023-09-21T13:07:09.640Z,72.81
2023-09-21T13:09:54.691Z,73.14
2023-09-21T13:12:40.800Z,73.08
2023-09-21T13:15:27.777Z,75.84
2023-09-21T13:18:15.550Z,73.23
2023-09-21T13:21:01.130Z,74.39
2023-09-21T13:23:46.377Z,75.38
2023-09-21T13:26:31.591Z,77.04
2023-09-21T13:29:19.690Z,79.46
2023-09-21T13:32:05.957Z,79.38
2023-09-21T13:34:51.869Z,80.28
2023-09-21T13:37:37.428Z,80.29
2023-09-21T13:40:23.231Z,78.88
2023-09-21T13:43:08.599Z,78.72
2023-09-21T13:45:53.567Z,79.28
2023-09-21T13:48:39.634Z,80.58
2023-09-21T13:51:25.311Z,82.68
2023-09-21T13:54:10.629Z,82.33
2023-09-21T13:56:56.088Z,83.09
2023-09-21T13:59:41.315Z,82.45
2023-09-21T14:02:27.224Z,82.07
2023-09-21T14:05:12.564Z,83.43
2023-09-21T14:07:58.796Z,84.64
2023-09-21T14:10:44.607Z,81.26
2023-09-21T14:13:29.698Z,79.73
2023-09-21T14:16:14.734Z,79.01
2023-09-21T14:19:00.460Z,80.10
2023-09-21T14:21:45.499Z,81.43
2023-09-21T14:24:31.372Z,84.35
2023-09-21T14:27:16.630Z,83.21
2023-09-21T14:30:03.166Z,82.21
2023-09-21T14:32:53.720Z,81.23
2023-09-21T14:35:38.689Z,80.97
2023-09-21T14:38:23.651Z,82.15
2023-09-21T14:41:08.708Z,81.90
2023-09-21T14:43:53.693Z,82.97
2023-09-21T14:46:38.655Z,84.48
2023-09-21T14:49:26.644Z,84.13
2023-09-21T14:52:13.773Z,83.03
2023-09-21T14:54:59.264Z,83.84
2023-09-21T14:57:45.079Z,84.08
2023-09-21T15:00:31.057Z,83.20
2023-09-21T15:03:16.992Z,82.57
2023-09-21T15:06:02.635Z,81.86
2023-09-21T15:08:48.136Z,81.96
2023-09-21T15:11:33.376Z,82.82
2023-09-21T15:14:19.307Z,82.50
2023-09-21T15:17:04.351Z,82.13
2023-09-21T15:19:50.343Z,81.79
2023-09-21T15:22:35.435Z,82.73
2023-09-21T15:25:21.233Z,83.15
2023-09-21T15:28:06.794Z,82.96
2023-09-21T15:30:52.411Z,83.95
2023-09-21T15:33:37.685Z,84.75
2023-09-21T15:36:23.019Z,84.98
2023-09-21T15:39:11.862Z,84.00
2023-09-21T15:41:56.741Z,83.82
2023-09-21T15:44:42.126Z,85.39
2023-09-21T15:47:27.847Z,84.24
2023-09-21T15:50:13.238Z,84.66
2023-09-21T15:52:58.843Z,84.85
2023-09-21T15:55:46.073Z,84.59
2023-09-21T15:58:32.818Z,84.06
2023-09-21T16:01:18.105Z,84.66
2023-09-21T16:04:06.678Z,83.10
2023-09-21T16:06:51.930Z,82.81
2023-09-21T16:09:36.883Z,82.76
2023-09-21T16:12:22.279Z,83.87
2023-09-21T16:15:07.938Z,83.67
2023-09-21T16:17:53.582Z,84.28
2023-09-21T16:20:39.031Z,84.31
2023-09-21T16:23:26.123Z,85.66
2023-09-21T16:26:11.024Z,85.79
2023-09-21T16:28:56.017Z,85.64
2023-09-21T16:31:41.476Z,84.93
2023-09-21T16:34:26.375Z,83.53
2023-09-21T16:37:11.783Z,83.96
2023-09-21T16:39:57.084Z,83.82
2023-09-21T16:42:42.151Z,83.11
2023-09-21T16:45:27.785Z,83.66
2023-09-21T16:48:12.909Z,81.68
2023-09-21T16:50:59.118Z,81.28
2023-09-21T16:53:44.553Z,80.84
2023-09-21T16:56:32.025Z,80.18
2023-09-21T16:59:19.038Z,80.10
2023-09-21T17:02:04.355Z,80.15
2023-09-21T17:04:49.654Z,80.36
2023-09-21T17:07:34.666Z,80.60
2023-09-21T17:10:21.279Z,80.80
2023-09-21T17:13:08.230Z,80.38
2023-09-21T17:15:53.968Z,80.88
2023-09-21T17:18:39.031Z,81.13
2023-09-21T17:21:24.126Z,81.04
2023-09-21T17:24:09.426Z,81.20
2023-09-21T17:26:54.661Z,81.01
2023-09-21T17:29:39.891Z,79.72
2023-09-21T17:32:25.732Z,79.25
2023-09-21T17:35:11.151Z,78.47
2023-09-21T17:37:56.510Z,77.85
2023-09-21T17:40:41.633Z,77.61
2023-09-21T17:43:27.372Z,76.76
2023-09-21T17:46:12.739Z,76.89
2023-09-21T17:48:58.109Z,76.91
2023-09-21T17:51:44.174Z,76.20
2023-09-21T17:54:29.360Z,76.32
2023-09-21T17:57:15.914Z,76.29
2023-09-21T18:00:01.310Z,76.52
2023-09-21T18:02:46.962Z,76.52
2023-09-21T18:05:34.692Z,76.13
2023-09-21T18:08:20.137Z,77.10
2023-09-21T18:11:05.555Z,78.25
2023-09-21T18:13:51.166Z,78.51
2023-09-21T18:16:36.176Z,79.17
2023-09-21T18:19:21.182Z,79.23
2023-09-21T18:22:07.063Z,79.57
2023-09-21T18:24:52.068Z,80.39
2023-09-21T18:27:37.521Z,80.74
2023-09-21T18:30:22.656Z,81.24
2023-09-21T18:33:08.098Z,81.19
2023-09-21T18:35:52.995Z,82.79
2023-09-21T18:38:38.365Z,77.03
2023-09-21T18:41:23.448Z,80.42
2023-09-21T18:44:08.940Z,77.48
2023-09-21T18:46:54.004Z,80.19
2023-09-21T18:49:39.376Z,79.99
2023-09-21T18:52:24.565Z,80.08
2023-09-21T18:55:09.948Z,75.85
2023-09-21T18:57:56.192Z,77.18
2023-09-21T19:00:41.486Z,80.85
2023-09-21T19:03:27.305Z,82.32
2023-09-21T19:06:13.705Z,75.21
2023-09-21T19:09:00.625Z,79.05
2023-09-21T19:11:46.914Z,79.68
2023-09-21T19:14:31.906Z,74.38
2023-09-21T19:17:17.274Z,73.83
2023-09-21T19:20:04.006Z,73.63
2023-09-21T19:22:50.288Z,74.60
2023-09-21T19:25:37.843Z,76.99
2023-09-21T19:28:25.714Z,73.30
2023-09-21T19:31:13.323Z,73.39
2023-09-21T19:33:58.500Z,80.78
2023-09-21T19:36:44.057Z,74.97
2023-09-21T19:39:29.974Z,80.43
2023-09-21T19:42:15.063Z,79.00
2023-09-21T19:45:00.362Z,77.72
2023-09-21T19:47:45.614Z,78.06
2023-09-21T19:50:31.126Z,80.45
2023-09-21T19:53:17.447Z,79.98
2023-09-21T19:56:02.685Z,78.00
2023-09-21T19:58:47.953Z,78.74
2023-09-21T20:01:33.273Z,77.74
2023-09-21T20:04:19.199Z,79.81
2023-09-21T20:07:04.894Z,81.27
2023-09-21T20:09:50.179Z,81.31
2023-09-21T20:12:35.635Z,79.25
2023-09-21T20:15:21.148Z,81.81
2023-09-21T20:18:07.276Z,80.34
2023-09-21T20:20:52.425Z,77.47
2023-09-21T20:23:37.477Z,76.89
2023-09-21T20:26:22.850Z,76.14
2023-09-21T20:29:08.025Z,75.89
2023-09-21T20:31:55.108Z,80.29
2023-09-21T20:34:40.805Z,80.11
2023-09-21T20:37:25.770Z,78.88
2023-09-21T20:40:12.706Z,81.16
2023-09-21T20:42:58.041Z,77.74
2023-09-21T20:45:45.410Z,77.24
2023-09-21T20:48:30.995Z,76.87
2023-09-21T20:51:16.766Z,77.45
2023-09-21T20:54:01.943Z,76.81
2023-09-21T20:56:47.118Z,75.18
2023-09-21T20:59:32.596Z,77.19
2023-09-21T21:02:18.015Z,79.47
2023-09-21T21:05:03.383Z,78.53
2023-09-21T21:07:48.747Z,78.93
2023-09-21T21:10:33.806Z,77.30
2023-09-21T21:13:19.112Z,76.97
2023-09-21T21:16:04.755Z,76.99
2023-09-21T21:18:49.997Z,78.22
2023-09-21T21:21:36.114Z,77.95
2023-09-21T21:24:21.065Z,78.39
2023-09-21T21:27:06.223Z,78.48
2023-09-21T21:29:51.372Z,78.43
2023-09-21T21:32:36.669Z,78.05
2023-09-21T21:35:22.038Z,78.16
2023-09-21T21:38:06.923Z,78.42
2023-09-21T21:40:52.248Z,78.19
2023-09-21T21:43:40.191Z,78.35
2023-09-21T21:46:25.631Z,78.91
2023-09-21T21:49:10.748Z,77.80
2023-09-21T21:51:56.939Z,79.09
2023-09-21T21:54:42.282Z,80.01
2023-09-21T21:57:27.542Z,80.21
2023-09-21T22:00:27.557Z,80.50
2023-09-21T22:03:13.132Z,82.25
2023-09-21T22:05:59.495Z,83.56
2023-09-21T22:08:45.243Z,86.70
2023-09-21T22:11:30.619Z,87.34
2023-09-21T22:14:15.687Z,86.57
2023-09-21T22:17:00.870Z,87.67
2023-09-21T22:19:46.255Z,91.54
2023-09-21T22:22:31.476Z,94.22
2023-09-21T22:25:20.489Z,89.08
2023-09-21T22:28:07.586Z,90.21
2023-09-21T22:30:53.637Z,84.83
2023-09-21T22:33:41.164Z,86.66
2023-09-21T22:36:29.212Z,84.90
2023-09-21T22:39:17.405Z,84.12
2023-09-21T22:42:02.618Z,87.28
2023-09-21T22:44:47.612Z,86.72
2023-09-21T22:47:34.376Z,94.81
2023-09-21T22:50:20.659Z,94.27
2023-09-21T22:53:05.841Z,94.25
2023-09-21T22:55:52.268Z,94.93
2023-09-21T22:58:38.346Z,96.26
2023-09-21T23:01:24.350Z,91.36
2023-09-21T23:04:09.756Z,92.50
2023-09-21T23:06:59.090Z,89.04
2023-09-21T23:09:44.553Z,90.03
2023-09-21T23:12:34.931Z,84.60
2023-09-21T23:15:20.016Z,86.74
2023-09-21T23:18:05.410Z,89.56
2023-09-21T23:20:50.366Z,86.33
2023-09-21T23:23:40.034Z,90.50
2023-09-21T23:26:28.733Z,94.06
2023-09-21T23:29:15.902Z,93.77
2023-09-21T23:32:01.488Z,96.67
2023-09-21T23:34:47.254Z,97.96
2023-09-21T23:37:33.282Z,96.75
2023-09-21T23:40:20.843Z,97.87
2023-09-21T23:43:06.337Z,95.55
2023-09-21T23:45:51.560Z,98.76
2023-09-21T23:48:38.400Z,97.32
2023-09-21T23:51:24.094Z,100.00
2023-09-21T23:54:09.545Z,95.38
2023-09-21T23:56:55.130Z,100.00
2023-09-21T23:59:40.331Z,96.93
